sensor_id;sensor_type;location;lat;lon;timestamp;P1;durP1;ratioP1;P2;durP2;ratioP2
81868;SDS011;71320;52.252;13.382;2023-07-29T00:03:26;2.05;;;1.88;;
81868;SDS011;71320;52.252;13.382;2023-07-29T00:08:30;3.70;;;2.05;;
81868;SDS011;71320;52.252;13.382;2023-07-29T00:13:32;2.35;;;2.08;;
81868;SDS011;71320;52.252;13.382;2023-07-29T00:18:34;3.08;;;2.30;;
81868;SDS011;71320;52.252;13.382;2023-07-29T00:23:36;3.85;;;2.05;;
81868;SDS011;71320;52.252;13.382;2023-07-29T00:28:39;4.68;;;1.88;;
81868;SDS011;71320;52.252;13.382;2023-07-29T00:33:40;2.22;;;2.03;;
81868;SDS011;71320;52.252;13.382;2023-07-29T00:38:42;4.22;;;1.88;;
81868;SDS011;71320;52.252;13.382;2023-07-29T00:43:45;2.83;;;2.05;;
81868;SDS011;71320;52.252;13.382;2023-07-29T00:48:46;2.85;;;2.20;;
81868;SDS011;71320;52.252;13.382;2023-07-29T00:53:48;2.47;;;1.92;;
81868;SDS011;71320;52.252;13.382;2023-07-29T00:58:51;3.47;;;1.98;;
81868;SDS011;71320;52.252;13.382;2023-07-29T01:03:58;1.95;;;1.80;;
81868;SDS011;71320;52.252;13.382;2023-07-29T01:09:01;3.10;;;2.60;;
81868;SDS011;71320;52.252;13.382;2023-07-29T01:14:08;2.90;;;2.22;;
81868;SDS011;71320;52.252;13.382;2023-07-29T01:19:21;3.60;;;2.42;;
81868;SDS011;71320;52.252;13.382;2023-07-29T01:24:36;4.07;;;2.00;;
81868;SDS011;71320;52.252;13.382;2023-07-29T01:29:38;4.38;;;2.70;;
81868;SDS011;71320;52.252;13.382;2023-07-29T01:34:41;8.95;;;3.88;;
81868;SDS011;71320;52.252;13.382;2023-07-29T01:39:50;4.78;;;3.80;;
81868;SDS011;71320;52.252;13.382;2023-07-29T01:44:55;5.95;;;4.15;;
81868;SDS011;71320;52.252;13.382;2023-07-29T01:49:56;4.85;;;3.30;;
81868;SDS011;71320;52.252;13.382;2023-07-29T01:54:59;5.22;;;3.40;;
81868;SDS011;71320;52.252;13.382;2023-07-29T02:00:01;3.90;;;3.20;;
81868;SDS011;71320;52.252;13.382;2023-07-29T02:05:14;4.38;;;3.83;;
81868;SDS011;71320;52.252;13.382;2023-07-29T02:10:17;10.90;;;4.07;;
81868;SDS011;71320;52.252;13.382;2023-07-29T02:15:19;5.88;;;3.97;;
81868;SDS011;71320;52.252;13.382;2023-07-29T02:20:20;3.47;;;3.03;;
81868;SDS011;71320;52.252;13.382;2023-07-29T02:25:25;3.63;;;3.13;;
81868;SDS011;71320;52.252;13.382;2023-07-29T02:30:27;4.13;;;3.28;;
81868;SDS011;71320;52.252;13.382;2023-07-29T02:35:28;5.65;;;3.30;;
81868;SDS011;71320;52.252;13.382;2023-07-29T02:40:31;4.35;;;3.10;;
81868;SDS011;71320;52.252;13.382;2023-07-29T02:45:33;2.72;;;2.10;;
81868;SDS011;71320;52.252;13.382;2023-07-29T02:50:34;4.30;;;2.42;;
81868;SDS011;71320;52.252;13.382;2023-07-29T02:55:40;3.17;;;2.88;;
81868;SDS011;71320;52.252;13.382;2023-07-29T03:00:41;4.95;;;2.95;;
81868;SDS011;71320;52.252;13.382;2023-07-29T03:05:43;3.30;;;2.90;;
81868;SDS011;71320;52.252;13.382;2023-07-29T03:10:46;4.50;;;2.58;;
81868;SDS011;71320;52.252;13.382;2023-07-29T03:15:48;3.15;;;2.25;;
81868;SDS011;71320;52.252;13.382;2023-07-29T03:20:49;3.42;;;2.70;;
81868;SDS011;71320;52.252;13.382;2023-07-29T03:25:53;3.67;;;2.38;;
81868;SDS011;71320;52.252;13.382;2023-07-29T03:30:56;3.90;;;2.53;;
81868;SDS011;71320;52.252;13.382;2023-07-29T03:35:58;3.42;;;2.45;;
81868;SDS011;71320;52.252;13.382;2023-07-29T03:41:01;2.38;;;2.15;;
81868;SDS011;71320;52.252;13.382;2023-07-29T03:46:03;4.00;;;2.17;;
81868;SDS011;71320;52.252;13.382;2023-07-29T03:51:06;3.50;;;2.50;;
81868;SDS011;71320;52.252;13.382;2023-07-29T03:56:09;3.60;;;2.30;;
81868;SDS011;71320;52.252;13.382;2023-07-29T04:01:11;3.45;;;2.40;;
81868;SDS011;71320;52.252;13.382;2023-07-29T04:06:12;2.60;;;2.40;;
81868;SDS011;71320;52.252;13.382;2023-07-29T04:11:15;3.42;;;2.50;;
81868;SDS011;71320;52.252;13.382;2023-07-29T04:16:17;2.45;;;2.25;;
81868;SDS011;71320;52.252;13.382;2023-07-29T04:21:18;2.40;;;2.20;;
81868;SDS011;71320;52.252;13.382;2023-07-29T04:26:21;2.72;;;2.50;;
81868;SDS011;71320;52.252;13.382;2023-07-29T04:31:23;3.60;;;2.13;;
81868;SDS011;71320;52.252;13.382;2023-07-29T04:36:25;2.83;;;2.63;;
81868;SDS011;71320;52.252;13.382;2023-07-29T04:41:28;3.25;;;2.45;;
81868;SDS011;71320;52.252;13.382;2023-07-29T04:46:30;2.58;;;2.38;;
81868;SDS011;71320;52.252;13.382;2023-07-29T04:51:32;2.75;;;2.03;;
81868;SDS011;71320;52.252;13.382;2023-07-29T04:56:35;2.35;;;2.08;;
81868;SDS011;71320;52.252;13.382;2023-07-29T05:01:37;3.83;;;2.25;;
81868;SDS011;71320;52.252;13.382;2023-07-29T05:06:39;2.08;;;1.88;;
81868;SDS011;71320;52.252;13.382;2023-07-29T05:11:42;3.05;;;2.30;;
81868;SDS011;71320;52.252;13.382;2023-07-29T05:16:45;2.30;;;2.10;;
81868;SDS011;71320;52.252;13.382;2023-07-29T05:21:48;2.03;;;1.83;;
81868;SDS011;71320;52.252;13.382;2023-07-29T05:26:51;2.05;;;1.85;;
81868;SDS011;71320;52.252;13.382;2023-07-29T05:31:53;2.97;;;2.28;;
81868;SDS011;71320;52.252;13.382;2023-07-29T05:36:54;2.40;;;2.20;;
81868;SDS011;71320;52.252;13.382;2023-07-29T05:41:57;2.42;;;2.22;;
81868;SDS011;71320;52.252;13.382;2023-07-29T05:46:59;2.15;;;1.75;;
81868;SDS011;71320;52.252;13.382;2023-07-29T05:52:01;3.58;;;1.90;;
81868;SDS011;71320;52.252;13.382;2023-07-29T05:57:04;1.70;;;1.60;;
81868;SDS011;71320;52.252;13.382;2023-07-29T06:02:06;3.53;;;1.65;;
81868;SDS011;71320;52.252;13.382;2023-07-29T06:07:08;2.00;;;1.80;;
81868;SDS011;71320;52.252;13.382;2023-07-29T06:12:11;2.65;;;1.80;;
81868;SDS011;71320;52.252;13.382;2023-07-29T06:17:13;2.75;;;1.88;;
81868;SDS011;71320;52.252;13.382;2023-07-29T06:22:14;2.45;;;1.85;;
81868;SDS011;71320;52.252;13.382;2023-07-29T06:27:18;1.75;;;1.65;;
81868;SDS011;71320;52.252;13.382;2023-07-29T06:32:19;1.42;;;1.33;;
81868;SDS011;71320;52.252;13.382;2023-07-29T06:37:21;2.10;;;1.63;;
81868;SDS011;71320;52.252;13.382;2023-07-29T06:42:24;1.73;;;1.63;;
81868;SDS011;71320;52.252;13.382;2023-07-29T06:47:25;3.67;;;1.67;;
81868;SDS011;71320;52.252;13.382;2023-07-29T06:52:27;2.17;;;1.60;;
81868;SDS011;71320;52.252;13.382;2023-07-29T06:57:30;1.65;;;1.55;;
81868;SDS011;71320;52.252;13.382;2023-07-29T07:02:31;1.48;;;1.38;;
81868;SDS011;71320;52.252;13.382;2023-07-29T07:07:33;1.48;;;1.38;;
81868;SDS011;71320;52.252;13.382;2023-07-29T07:12:36;2.15;;;1.60;;
81868;SDS011;71320;52.252;13.382;2023-07-29T07:17:37;2.40;;;1.48;;
81868;SDS011;71320;52.252;13.382;2023-07-29T07:22:39;1.23;;;1.13;;
81868;SDS011;71320;52.252;13.382;2023-07-29T07:27:42;2.35;;;1.40;;
81868;SDS011;71320;52.252;13.382;2023-07-29T07:32:43;1.20;;;1.10;;
81868;SDS011;71320;52.252;13.382;2023-07-29T07:37:46;1.75;;;1.60;;
81868;SDS011;71320;52.252;13.382;2023-07-29T07:42:49;2.05;;;1.17;;
81868;SDS011;71320;52.252;13.382;2023-07-29T07:47:51;1.60;;;1.50;;
81868;SDS011;71320;52.252;13.382;2023-07-29T07:52:53;3.13;;;1.60;;
81868;SDS011;71320;52.252;13.382;2023-07-29T07:57:55;1.60;;;1.50;;
81868;SDS011;71320;52.252;13.382;2023-07-29T08:02:57;1.88;;;1.50;;
81868;SDS011;71320;52.252;13.382;2023-07-29T08:07:58;1.45;;;1.35;;
81868;SDS011;71320;52.252;13.382;2023-07-29T08:13:01;1.63;;;1.52;;
81868;SDS011;71320;52.252;13.382;2023-07-29T08:18:03;1.33;;;1.20;;
81868;SDS011;71320;52.252;13.382;2023-07-29T08:23:04;2.05;;;1.48;;
81868;SDS011;71320;52.252;13.382;2023-07-29T08:28:07;1.77;;;1.58;;
81868;SDS011;71320;52.252;13.382;2023-07-29T08:33:11;2.75;;;1.25;;
81868;SDS011;71320;52.252;13.382;2023-07-29T08:38:12;3.38;;;1.40;;
81868;SDS011;71320;52.252;13.382;2023-07-29T08:43:15;2.15;;;1.38;;
81868;SDS011;71320;52.252;13.382;2023-07-29T08:48:21;2.38;;;1.15;;
81868;SDS011;71320;52.252;13.382;2023-07-29T08:53:28;1.23;;;1.10;;
81868;SDS011;71320;52.252;13.382;2023-07-29T08:58:32;1.63;;;1.50;;
81868;SDS011;71320;52.252;13.382;2023-07-29T09:03:34;3.63;;;2.38;;
81868;SDS011;71320;52.252;13.382;2023-07-29T09:08:35;1.98;;;1.50;;
81868;SDS011;71320;52.252;13.382;2023-07-29T09:13:38;3.47;;;1.38;;
81868;SDS011;71320;52.252;13.382;2023-07-29T09:18:40;1.48;;;1.30;;
81868;SDS011;71320;52.252;13.382;2023-07-29T09:23:42;1.52;;;1.42;;
81868;SDS011;71320;52.252;13.382;2023-07-29T09:28:45;2.40;;;1.48;;
81868;SDS011;71320;52.252;13.382;2023-07-29T09:33:55;1.67;;;1.40;;
81868;SDS011;71320;52.252;13.382;2023-07-29T09:38:59;1.58;;;1.23;;
81868;SDS011;71320;52.252;13.382;2023-07-29T09:44:03;2.60;;;1.50;;
81868;SDS011;71320;52.252;13.382;2023-07-29T09:49:06;2.17;;;1.30;;
81868;SDS011;71320;52.252;13.382;2023-07-29T09:54:09;2.83;;;1.77;;
81868;SDS011;71320;52.252;13.382;2023-07-29T09:59:14;1.38;;;1.23;;
81868;SDS011;71320;52.252;13.382;2023-07-29T10:04:20;1.50;;;1.40;;
81868;SDS011;71320;52.252;13.382;2023-07-29T10:09:22;1.27;;;1.17;;
81868;SDS011;71320;52.252;13.382;2023-07-29T10:14:26;2.17;;;1.30;;
81868;SDS011;71320;52.252;13.382;2023-07-29T10:19:31;1.50;;;1.08;;
81868;SDS011;71320;52.252;13.382;2023-07-29T10:24:33;1.50;;;1.40;;
81868;SDS011;71320;52.252;13.382;2023-07-29T10:29:38;1.25;;;1.15;;
81868;SDS011;71320;52.252;13.382;2023-07-29T10:34:40;1.20;;;1.10;;
81868;SDS011;71320;52.252;13.382;2023-07-29T10:39:51;1.15;;;1.05;;
81868;SDS011;71320;52.252;13.382;2023-07-29T10:44:56;1.73;;;1.45;;
81868;SDS011;71320;52.252;13.382;2023-07-29T10:49:58;1.10;;;1.00;;
81868;SDS011;71320;52.252;13.382;2023-07-29T10:55:00;1.35;;;1.25;;
81868;SDS011;71320;52.252;13.382;2023-07-29T11:00:05;1.45;;;1.33;;
81868;SDS011;71320;52.252;13.382;2023-07-29T11:05:16;1.35;;;1.25;;
81868;SDS011;71320;52.252;13.382;2023-07-29T11:10:18;2.05;;;1.58;;
81868;SDS011;71320;52.252;13.382;2023-07-29T11:15:23;2.30;;;1.30;;
81868;SDS011;71320;52.252;13.382;2023-07-29T11:20:27;2.67;;;1.38;;
81868;SDS011;71320;52.252;13.382;2023-07-29T11:25:30;1.63;;;1.10;;
81868;SDS011;71320;52.252;13.382;2023-07-29T11:30:34;3.72;;;1.20;;
81868;SDS011;71320;52.252;13.382;2023-07-29T11:35:40;1.20;;;1.00;;
81868;SDS011;71320;52.252;13.382;2023-07-29T11:40:42;2.35;;;1.52;;
81868;SDS011;71320;52.252;13.382;2023-07-29T11:45:45;1.23;;;1.10;;
81868;SDS011;71320;52.252;13.382;2023-07-29T11:50:46;2.85;;;1.60;;
81868;SDS011;71320;52.252;13.382;2023-07-29T11:55:49;3.03;;;1.60;;
81868;SDS011;71320;52.252;13.382;2023-07-29T12:00:54;1.75;;;1.38;;
81868;SDS011;71320;52.252;13.382;2023-07-29T12:05:56;2.08;;;1.33;;
81868;SDS011;71320;52.252;13.382;2023-07-29T12:10:58;1.67;;;1.15;;
81868;SDS011;71320;52.252;13.382;2023-07-29T12:16:02;1.55;;;1.45;;
81868;SDS011;71320;52.252;13.382;2023-07-29T12:21:04;2.05;;;1.38;;
81868;SDS011;71320;52.252;13.382;2023-07-29T12:26:06;3.63;;;1.30;;
81868;SDS011;71320;52.252;13.382;2023-07-29T12:31:09;2.33;;;1.02;;
81868;SDS011;71320;52.252;13.382;2023-07-29T12:36:10;2.47;;;1.33;;
81868;SDS011;71320;52.252;13.382;2023-07-29T12:41:12;1.67;;;0.93;;
81868;SDS011;71320;52.252;13.382;2023-07-29T12:46:15;2.17;;;0.90;;
81868;SDS011;71320;52.252;13.382;2023-07-29T12:51:16;5.93;;;1.35;;
81868;SDS011;71320;52.252;13.382;2023-07-29T12:56:18;3.00;;;0.90;;
81868;SDS011;71320;52.252;13.382;2023-07-29T13:01:21;1.33;;;1.08;;
81868;SDS011;71320;52.252;13.382;2023-07-29T13:06:23;1.38;;;1.00;;
81868;SDS011;71320;52.252;13.382;2023-07-29T13:11:24;3.63;;;1.05;;
81868;SDS011;71320;52.252;13.382;2023-07-29T13:16:28;2.33;;;1.15;;
81868;SDS011;71320;52.252;13.382;2023-07-29T13:21:30;1.38;;;1.00;;
81868;SDS011;71320;52.252;13.382;2023-07-29T13:26:32;1.08;;;0.80;;
81868;SDS011;71320;52.252;13.382;2023-07-29T13:31:35;1.63;;;1.00;;
81868;SDS011;71320;52.252;13.382;2023-07-29T13:36:36;1.50;;;1.15;;
81868;SDS011;71320;52.252;13.382;2023-07-29T13:41:38;1.27;;;0.90;;
81868;SDS011;71320;52.252;13.382;2023-07-29T13:46:41;2.25;;;1.00;;
81868;SDS011;71320;52.252;13.382;2023-07-29T13:51:43;1.30;;;1.00;;
81868;SDS011;71320;52.252;13.382;2023-07-29T13:56:44;1.00;;;0.60;;
81868;SDS011;71320;52.252;13.382;2023-07-29T14:01:47;0.95;;;0.70;;
81868;SDS011;71320;52.252;13.382;2023-07-29T14:06:49;1.48;;;0.70;;
81868;SDS011;71320;52.252;13.382;2023-07-29T14:11:50;2.45;;;0.80;;
81868;SDS011;71320;52.252;13.382;2023-07-29T14:16:53;0.85;;;0.68;;
81868;SDS011;71320;52.252;13.382;2023-07-29T14:21:55;0.93;;;0.70;;
81868;SDS011;71320;52.252;13.382;2023-07-29T14:26:57;1.77;;;0.75;;
81868;SDS011;71320;52.252;13.382;2023-07-29T14:32:00;1.13;;;0.70;;
81868;SDS011;71320;52.252;13.382;2023-07-29T14:37:02;0.60;;;0.60;;
81868;SDS011;71320;52.252;13.382;2023-07-29T14:42:04;1.05;;;0.60;;
81868;SDS011;71320;52.252;13.382;2023-07-29T14:47:08;1.75;;;0.90;;
81868;SDS011;71320;52.252;13.382;2023-07-29T14:52:10;1.67;;;0.70;;
81868;SDS011;71320;52.252;13.382;2023-07-29T14:57:12;0.98;;;0.80;;
81868;SDS011;71320;52.252;13.382;2023-07-29T15:02:14;0.63;;;0.57;;
81868;SDS011;71320;52.252;13.382;2023-07-29T15:07:16;3.50;;;0.98;;
81868;SDS011;71320;52.252;13.382;2023-07-29T15:12:18;1.58;;;0.90;;
81868;SDS011;71320;52.252;13.382;2023-07-29T15:17:21;2.85;;;1.00;;
81868;SDS011;71320;52.252;13.382;2023-07-29T15:22:22;0.77;;;0.70;;
81868;SDS011;71320;52.252;13.382;2023-07-29T15:27:24;1.00;;;0.77;;
81868;SDS011;71320;52.252;13.382;2023-07-29T15:32:27;1.55;;;0.95;;
81868;SDS011;71320;52.252;13.382;2023-07-29T15:37:29;1.05;;;0.80;;
81868;SDS011;71320;52.252;13.382;2023-07-29T15:42:30;0.98;;;0.70;;
81868;SDS011;71320;52.252;13.382;2023-07-29T15:47:33;1.38;;;0.82;;
81868;SDS011;71320;52.252;13.382;2023-07-29T15:52:35;1.33;;;0.80;;
81868;SDS011;71320;52.252;13.382;2023-07-29T15:57:36;3.15;;;1.00;;
81868;SDS011;71320;52.252;13.382;2023-07-29T16:02:39;2.65;;;1.10;;
81868;SDS011;71320;52.252;13.382;2023-07-29T16:07:41;2.10;;;0.90;;
81868;SDS011;71320;52.252;13.382;2023-07-29T16:12:42;1.00;;;0.80;;
81868;SDS011;71320;52.252;13.382;2023-07-29T16:17:45;0.93;;;0.63;;
81868;SDS011;71320;52.252;13.382;2023-07-29T16:22:50;1.85;;;1.00;;
81868;SDS011;71320;52.252;13.382;2023-07-29T16:27:52;1.45;;;0.77;;
81868;SDS011;71320;52.252;13.382;2023-07-29T16:32:57;1.80;;;0.95;;
81868;SDS011;71320;52.252;13.382;2023-07-29T16:37:58;1.02;;;0.90;;
81868;SDS011;71320;52.252;13.382;2023-07-29T16:43:00;3.63;;;1.00;;
81868;SDS011;71320;52.252;13.382;2023-07-29T16:48:04;2.30;;;0.85;;
81868;SDS011;71320;52.252;13.382;2023-07-29T16:53:05;1.80;;;1.02;;
81868;SDS011;71320;52.252;13.382;2023-07-29T16:58:07;2.25;;;1.02;;
81868;SDS011;71320;52.252;13.382;2023-07-29T17:03:10;2.60;;;1.48;;
81868;SDS011;71320;52.252;13.382;2023-07-29T17:08:12;3.70;;;0.90;;
81868;SDS011;71320;52.252;13.382;2023-07-29T17:13:13;2.63;;;1.40;;
81868;SDS011;71320;52.252;13.382;2023-07-29T17:18:16;3.92;;;1.15;;
81868;SDS011;71320;52.252;13.382;2023-07-29T17:23:18;2.28;;;0.85;;
81868;SDS011;71320;52.252;13.382;2023-07-29T17:28:19;1.65;;;1.00;;
81868;SDS011;71320;52.252;13.382;2023-07-29T17:33:22;2.55;;;1.23;;
81868;SDS011;71320;52.252;13.382;2023-07-29T17:38:24;2.65;;;1.20;;
81868;SDS011;71320;52.252;13.382;2023-07-29T17:43:26;2.17;;;1.20;;
81868;SDS011;71320;52.252;13.382;2023-07-29T17:48:29;2.25;;;1.00;;
81868;SDS011;71320;52.252;13.382;2023-07-29T17:53:31;2.28;;;1.08;;
81868;SDS011;71320;52.252;13.382;2023-07-29T17:58:32;1.55;;;1.20;;
81868;SDS011;71320;52.252;13.382;2023-07-29T18:03:35;2.25;;;1.15;;
81868;SDS011;71320;52.252;13.382;2023-07-29T18:08:37;2.22;;;1.20;;
81868;SDS011;71320;52.252;13.382;2023-07-29T18:13:38;2.88;;;1.33;;
81868;SDS011;71320;52.252;13.382;2023-07-29T18:18:41;2.72;;;1.33;;
81868;SDS011;71320;52.252;13.382;2023-07-29T18:23:43;2.38;;;1.33;;
81868;SDS011;71320;52.252;13.382;2023-07-29T18:28:44;1.60;;;1.10;;
81868;SDS011;71320;52.252;13.382;2023-07-29T18:33:47;3.33;;;1.20;;
81868;SDS011;71320;52.252;13.382;2023-07-29T18:38:49;4.80;;;1.10;;
81868;SDS011;71320;52.252;13.382;2023-07-29T18:43:50;2.22;;;1.48;;
81868;SDS011;71320;52.252;13.382;2023-07-29T18:48:58;2.40;;;1.05;;
81868;SDS011;71320;52.252;13.382;2023-07-29T18:54:00;2.33;;;1.05;;
81868;SDS011;71320;52.252;13.382;2023-07-29T18:59:02;4.80;;;1.27;;
81868;SDS011;71320;52.252;13.382;2023-07-29T19:04:05;3.67;;;1.25;;
81868;SDS011;71320;52.252;13.382;2023-07-29T19:09:07;1.90;;;1.15;;
81868;SDS011;71320;52.252;13.382;2023-07-29T19:14:09;2.88;;;1.42;;
81868;SDS011;71320;52.252;13.382;2023-07-29T19:19:12;3.28;;;1.83;;
81868;SDS011;71320;52.252;13.382;2023-07-29T19:24:14;1.80;;;1.20;;
81868;SDS011;71320;52.252;13.382;2023-07-29T19:29:15;1.95;;;1.13;;
81868;SDS011;71320;52.252;13.382;2023-07-29T19:34:18;2.15;;;1.75;;
81868;SDS011;71320;52.252;13.382;2023-07-29T19:39:20;3.10;;;1.83;;
81868;SDS011;71320;52.252;13.382;2023-07-29T19:44:21;1.15;;;1.05;;
81868;SDS011;71320;52.252;13.382;2023-07-29T19:49:24;2.40;;;1.42;;
81868;SDS011;71320;52.252;13.382;2023-07-29T19:54:26;1.80;;;1.05;;
81868;SDS011;71320;52.252;13.382;2023-07-29T19:59:28;2.15;;;1.20;;
81868;SDS011;71320;52.252;13.382;2023-07-29T20:04:31;3.03;;;1.38;;
81868;SDS011;71320;52.252;13.382;2023-07-29T20:09:32;1.95;;;1.10;;
81868;SDS011;71320;52.252;13.382;2023-07-29T20:14:34;1.60;;;1.30;;
81868;SDS011;71320;52.252;13.382;2023-07-29T20:19:37;1.92;;;1.52;;
81868;SDS011;71320;52.252;13.382;2023-07-29T20:24:38;2.17;;;1.48;;
81868;SDS011;71320;52.252;13.382;2023-07-29T20:29:40;2.65;;;1.65;;
81868;SDS011;71320;52.252;13.382;2023-07-29T20:34:43;1.45;;;1.35;;
81868;SDS011;71320;52.252;13.382;2023-07-29T20:39:44;2.13;;;1.60;;
81868;SDS011;71320;52.252;13.382;2023-07-29T20:44:46;2.42;;;1.60;;
81868;SDS011;71320;52.252;13.382;2023-07-29T20:49:49;2.28;;;1.40;;
81868;SDS011;71320;52.252;13.382;2023-07-29T20:54:50;2.95;;;1.63;;
81868;SDS011;71320;52.252;13.382;2023-07-29T20:59:52;2.97;;;1.42;;
81868;SDS011;71320;52.252;13.382;2023-07-29T21:04:55;3.13;;;1.73;;
81868;SDS011;71320;52.252;13.382;2023-07-29T21:09:56;2.38;;;1.60;;
81868;SDS011;71320;52.252;13.382;2023-07-29T21:14:58;2.40;;;1.95;;
81868;SDS011;71320;52.252;13.382;2023-07-29T21:20:02;2.30;;;1.58;;
81868;SDS011;71320;52.252;13.382;2023-07-29T21:25:05;2.47;;;1.75;;
81868;SDS011;71320;52.252;13.382;2023-07-29T21:30:07;1.92;;;1.40;;
81868;SDS011;71320;52.252;13.382;2023-07-29T21:35:11;2.75;;;1.70;;
81868;SDS011;71320;52.252;13.382;2023-07-29T21:40:12;2.10;;;1.65;;
81868;SDS011;71320;52.252;13.382;2023-07-29T21:45:15;1.42;;;1.27;;
81868;SDS011;71320;52.252;13.382;2023-07-29T21:50:18;2.97;;;1.52;;
81868;SDS011;71320;52.252;13.382;2023-07-29T21:55:20;2.70;;;1.65;;
81868;SDS011;71320;52.252;13.382;2023-07-29T22:00:22;2.60;;;1.60;;
81868;SDS011;71320;52.252;13.382;2023-07-29T22:05:25;2.00;;;1.75;;
81868;SDS011;71320;52.252;13.382;2023-07-29T22:10:27;3.22;;;2.05;;
81868;SDS011;71320;52.252;13.382;2023-07-29T22:15:28;3.80;;;1.83;;
81868;SDS011;71320;52.252;13.382;2023-07-29T22:20:31;1.60;;;1.45;;
81868;SDS011;71320;52.252;13.382;2023-07-29T22:25:33;2.28;;;1.85;;
81868;SDS011;71320;52.252;13.382;2023-07-29T22:30:35;3.00;;;2.00;;
81868;SDS011;71320;52.252;13.382;2023-07-29T22:35:38;1.90;;;1.70;;
81868;SDS011;71320;52.252;13.382;2023-07-29T22:40:40;1.95;;;1.65;;
81868;SDS011;71320;52.252;13.382;2023-07-29T22:45:41;3.75;;;1.80;;
81868;SDS011;71320;52.252;13.382;2023-07-29T22:50:44;9.50;;;2.50;;
81868;SDS011;71320;52.252;13.382;2023-07-29T22:55:46;2.47;;;1.80;;
81868;SDS011;71320;52.252;13.382;2023-07-29T23:00:50;3.80;;;1.98;;
81868;SDS011;71320;52.252;13.382;2023-07-29T23:05:54;3.40;;;2.03;;
81868;SDS011;71320;52.252;13.382;2023-07-29T23:10:59;4.78;;;2.17;;
81868;SDS011;71320;52.252;13.382;2023-07-29T23:16:01;2.30;;;1.77;;
81868;SDS011;71320;52.252;13.382;2023-07-29T23:21:05;3.75;;;1.95;;
81868;SDS011;71320;52.252;13.382;2023-07-29T23:26:06;5.35;;;2.00;;
81868;SDS011;71320;52.252;13.382;2023-07-29T23:31:08;6.07;;;3.15;;
81868;SDS011;71320;52.252;13.382;2023-07-29T23:36:11;6.68;;;2.20;;
81868;SDS011;71320;52.252;13.382;2023-07-29T23:41:12;4.70;;;2.03;;
81868;SDS011;71320;52.252;13.382;2023-07-29T23:46:14;4.28;;;2.33;;
81868;SDS011;71320;52.252;13.382;2023-07-29T23:51:17;3.10;;;2.20;;
81868;SDS011;71320;52.252;13.382;2023-07-29T23:56:18;3.33;;;2.65;;
